Time;durP1;ratioP1;P1;durP2;ratioP2;P2;SDS_P1;SDS_P2;PMS_P1;PMS_P2;Temp;Humidity;BMP_temperature;BMP_pressure;BME280_temperature;BME280_humidity;BME280_pressure;Samples;Min_cycle;Max_cycle;Signal;HPM_P1;HPM_P2
2021/01/26 00:00:51;;;;;;;7.13;3.83;;;6.80;75.70;;;;;;5116202;28;20024;-66
2021/01/26 00:03:17;;;;;;;5.38;4.07;;;6.80;75.60;;;;;;5115943;28;20058;-66
2021/01/26 00:05:43;;;;;;;5.30;3.55;;;6.80;75.60;;;;;;5115215;28;20024;-67
2021/01/26 00:08:09;;;;;;;5.82;3.85;;;6.80;75.60;;;;;;5115809;28;20134;-66
2021/01/26 00:10:36;;;;;;;6.75;4.00;;;6.80;75.70;;;;;;5115660;28;20026;-66
2021/01/26 00:13:03;;;;;;;7.35;4.70;;;6.70;75.60;;;;;;5114983;28;20031;-67
2021/01/26 00:15:29;;;;;;;7.15;4.30;;;6.80;75.60;;;;;;5115586;28;20413;-66
2021/01/26 00:17:55;;;;;;;6.85;4.70;;;6.80;75.60;;;;;;5115349;28;20042;-66
2021/01/26 00:20:21;;;;;;;8.32;4.63;;;6.70;75.50;;;;;;5115347;28;20046;-66
2021/01/26 00:22:47;;;;;;;7.70;4.38;;;6.70;75.50;;;;;;5115508;28;20039;-66
2021/01/26 00:25:17;;;;;;;5.80;4.18;;;6.70;75.60;;;;;;5115409;28;20023;-66
2021/01/26 00:27:43;;;;;;;6.93;4.50;;;6.70;75.70;;;;;;5114795;28;20043;-66
2021/01/26 00:30:20;;;;;;;9.05;5.00;;;6.60;75.80;;;;;;5115255;28;20096;-66
2021/01/26 00:32:46;;;;;;;8.65;5.18;;;6.60;75.90;;;;;;5114846;28;20031;-66
2021/01/26 00:35:14;;;;;;;6.57;4.30;;;6.60;76.00;;;;;;5115310;28;20485;-66
2021/01/26 00:37:40;;;;;;;8.38;4.93;;;6.50;76.10;;;;;;5115371;28;20386;-66
2021/01/26 00:40:07;;;;;;;6.82;4.97;;;6.50;76.30;;;;;;5114280;28;20016;-66
2021/01/26 00:42:32;;;;;;;7.10;4.85;;;6.40;76.50;;;;;;5115390;28;20069;-66
2021/01/26 00:44:58;;;;;;;7.40;5.20;;;6.40;76.60;;;;;;5096429;28;20466;-66
2021/01/26 00:47:24;;;;;;;8.30;5.35;;;6.40;76.60;;;;;;5114752;28;20024;-66
2021/01/26 00:49:50;;;;;;;7.72;5.38;;;6.40;76.80;;;;;;5115190;28;20070;-66
2021/01/26 00:52:15;;;;;;;7.97;5.30;;;6.30;76.80;;;;;;5096330;28;20478;-66
2021/01/26 00:54:41;;;;;;;7.22;5.22;;;6.30;76.80;;;;;;5096102;28;20031;-66
2021/01/26 00:57:07;;;;;;;7.32;5.03;;;6.40;77.00;;;;;;5096342;28;20020;-66
2021/01/26 00:59:33;;;;;;;8.38;5.55;;;6.30;76.90;;;;;;5114867;28;20382;-66
2021/01/26 01:01:59;;;;;;;8.68;5.53;;;6.30;77.00;;;;;;5095837;28;20058;-66
2021/01/26 01:04:26;;;;;;;8.63;5.30;;;6.30;77.10;;;;;;5114740;28;20096;-66
2021/01/26 01:06:52;;;;;;;8.02;5.20;;;6.30;77.20;;;;;;5114363;28;20023;-67
2021/01/26 01:09:18;;;;;;;10.90;5.55;;;6.30;77.30;;;;;;5113869;28;20134;-66
2021/01/26 01:11:43;;;;;;;7.82;5.32;;;6.30;77.40;;;;;;5114654;28;20046;-66
2021/01/26 01:14:09;;;;;;;11.75;5.72;;;6.30;77.50;;;;;;5114093;28;20120;-67
2021/01/26 01:16:35;;;;;;;8.20;5.07;;;6.20;77.50;;;;;;5114117;28;20027;-66
2021/01/26 01:19:01;;;;;;;11.38;6.38;;;6.30;77.70;;;;;;5114206;28;20028;-66
2021/01/26 01:21:27;;;;;;;9.65;6.43;;;6.20;77.70;;;;;;5114069;28;20035;-66
2021/01/26 01:23:52;;;;;;;9.77;4.95;;;6.20;77.80;;;;;;5113858;28;20496;-66
2021/01/26 01:26:18;;;;;;;8.60;5.35;;;6.20;77.90;;;;;;5114049;28;20539;-66
2021/01/26 01:28:43;;;;;;;7.38;4.90;;;6.20;77.90;;;;;;5112891;28;20054;-66
2021/01/26 01:31:09;;;;;;;8.93;5.25;;;6.20;78.00;;;;;;5113731;28;20084;-67
2021/01/26 01:33:35;;;;;;;9.57;5.50;;;6.20;78.10;;;;;;5114498;28;20119;-67
2021/01/26 01:36:01;;;;;;;8.88;5.60;;;6.20;78.10;;;;;;5113403;28;20066;-66
2021/01/26 01:38:26;;;;;;;12.27;5.95;;;6.20;78.10;;;;;;5100705;28;20036;-66
2021/01/26 01:40:53;;;;;;;7.40;5.45;;;6.20;78.10;;;;;;5093722;28;20130;-66
2021/01/26 01:43:19;;;;;;;11.35;6.30;;;6.20;78.10;;;;;;5092739;28;20040;-66
2021/01/26 01:45:45;;;;;;;10.25;6.20;;;6.20;78.30;;;;;;5093436;28;20024;-66
2021/01/26 01:48:13;;;;;;;9.52;5.18;;;6.20;78.30;;;;;;5092933;28;20042;-66
2021/01/26 01:50:54;;;;;;;10.18;4.95;;;6.10;78.30;;;;;;5102330;28;20038;-66
2021/01/26 01:53:39;;;;;;;7.13;4.85;;;6.20;78.50;;;;;;5113729;28;20110;-66
2021/01/26 01:56:18;;;;;;;10.88;4.57;;;6.20;78.50;;;;;;5101501;28;20382;-66
2021/01/26 01:58:49;;;;;;;7.68;4.30;;;6.20;78.60;;;;;;5092667;28;20467;-66
2021/01/26 02:01:19;;;;;;;7.40;4.13;;;6.20;78.60;;;;;;5093429;28;20032;-66
2021/01/26 02:03:52;;;;;;;7.38;4.45;;;6.20;78.60;;;;;;5097907;28;20415;-66
2021/01/26 02:06:21;;;;;;;9.00;4.10;;;6.10;78.60;;;;;;5113374;28;20152;-66
2021/01/26 02:08:56;;;;;;;3.28;2.13;;;6.10;78.90;;;;;;5113316;28;20035;-66
2021/01/26 02:11:23;;;;;;;10.00;4.55;;;6.20;79.10;;;;;;5112878;28;20035;-66
2021/01/26 02:13:50;;;;;;;7.35;4.93;;;6.10;79.30;;;;;;5095405;28;20063;-66
2021/01/26 02:16:30;;;;;;;8.75;5.57;;;6.10;79.50;;;;;;5092759;28;20024;-66
2021/01/26 02:19:12;;;;;;;7.60;5.22;;;6.00;79.60;;;;;;5096097;28;20482;-66
2021/01/26 02:22:02;;;;;;;8.85;6.28;;;6.00;79.60;;;;;;5113428;28;20122;-66
2021/01/26 02:24:27;;;;;;;10.20;6.53;;;6.00;79.70;;;;;;5099973;28;20019;-66
2021/01/26 02:27:12;;;;;;;6.40;4.07;;;6.00;79.70;;;;;;5112978;28;20352;-66
2021/01/26 02:30:04;;;;;;;;;;;6.00;80.00;;;;;;5101027;28;20494;-66
2021/01/26 02:32:56;;;;;;;4.75;3.53;;;5.90;79.80;;;;;;5112463;28;20015;-66
2021/01/26 02:35:59;;;;;;;4.13;2.78;;;5.90;79.60;;;;;;5063898;28;20048;-66
2021/01/26 02:38:36;;;;;;;5.13;2.42;;;5.90;80.10;;;;;;5102634;28;20030;-66
2021/01/26 02:41:15;;;;;;;4.60;2.53;;;5.90;80.50;;;;;;5112453;28;20028;-66
2021/01/26 02:43:59;;;;;;;4.10;2.70;;;5.90;80.80;;;;;;5113369;28;20239;-66
2021/01/26 02:46:36;;;;;;;5.88;3.42;;;5.80;80.60;;;;;;5107586;28;20122;-66
2021/01/26 02:49:08;;;;;;;4.35;3.08;;;5.80;80.50;;;;;;5092640;28;20048;-66
2021/01/26 02:52:01;;;;;;;6.25;3.67;;;5.80;80.40;;;;;;5092319;28;20098;-66
2021/01/26 02:54:35;;;;;;;6.70;4.03;;;5.80;80.40;;;;;;5107205;28;20450;-66
2021/01/26 02:57:24;;;;;;;7.97;4.95;;;5.90;80.30;;;;;;5112941;28;20024;-66
2021/01/26 03:00:05;;;;;;;8.73;4.30;;;5.90;80.20;;;;;;5112641;28;20051;-66
2021/01/26 03:02:57;;;;;;;8.68;4.13;;;6.00;80.00;;;;;;5112719;28;20024;-66
2021/01/26 03:05:46;;;;;;;6.50;4.20;;;6.00;79.90;;;;;;5112824;28;20471;-66
2021/01/26 03:08:19;;;;;;;7.60;4.53;;;6.00;79.60;;;;;;5111963;28;20089;-66
2021/01/26 03:10:54;;;;;;;9.70;4.60;;;6.00;79.30;;;;;;5113352;28;20070;-66
2021/01/26 03:13:23;;;;;;;10.82;4.38;;;6.10;79.10;;;;;;5112625;28;20498;-66
2021/01/26 03:16:16;;;;;;;6.93;4.57;;;6.10;79.00;;;;;;5112426;28;20020;-66
2021/01/26 03:18:47;;;;;;;6.45;4.05;;;6.10;78.90;;;;;;5109230;28;20031;-66
2021/01/26 03:21:16;;;;;;;7.55;4.97;;;6.10;78.60;;;;;;5112635;28;20118;-66
2021/01/26 03:23:57;;;;;;;7.28;4.32;;;6.10;78.50;;;;;;5112249;28;20027;-66
2021/01/26 03:26:27;;;;;;;7.18;4.05;;;6.10;78.40;;;;;;5094409;28;20042;-66
2021/01/26 03:28:56;;;;;;;6.70;4.43;;;6.20;78.20;;;;;;5111752;28;20031;-66
2021/01/26 03:31:35;;;;;;;9.38;4.68;;;6.20;78.20;;;;;;5112935;28;20024;-66
2021/01/26 03:34:00;;;;;;;7.15;4.30;;;6.20;78.00;;;;;;5112409;28;20034;-66
2021/01/26 03:36:26;;;;;;;7.28;4.30;;;6.30;78.00;;;;;;5111912;28;20027;-66
2021/01/26 03:38:53;;;;;;;9.43;4.63;;;6.30;77.90;;;;;;5112461;28;20024;-66
2021/01/26 03:41:19;;;;;;;6.28;3.85;;;6.30;77.70;;;;;;5112396;28;20023;-66
2021/01/26 03:43:49;;;;;;;7.90;4.40;;;6.30;77.60;;;;;;5111962;28;20031;-66
2021/01/26 03:46:21;;;;;;;7.15;4.70;;;6.30;77.50;;;;;;5109338;28;20092;-66
2021/01/26 03:48:52;;;;;;;6.68;4.32;;;6.30;77.40;;;;;;5092015;28;20036;-66
2021/01/26 03:51:45;;;;;;;6.80;4.50;;;6.40;77.40;;;;;;5092705;28;20101;-66
2021/01/26 03:54:11;;;;;;;6.30;4.13;;;6.40;77.30;;;;;;5108848;28;20024;-67
2021/01/26 03:56:57;;;;;;;6.07;3.88;;;6.40;77.20;;;;;;5116008;28;20374;-66
2021/01/26 03:59:32;;;;;;;9.75;4.30;;;6.40;77.20;;;;;;5101646;28;20107;-66
2021/01/26 04:02:18;;;;;;;5.78;4.30;;;6.40;77.30;;;;;;5115822;28;20035;-67
2021/01/26 04:05:03;;;;;;;6.68;3.97;;;6.40;77.40;;;;;;5115280;28;20523;-66
2021/01/26 04:08:07;;;;;;;5.63;4.00;;;6.40;77.30;;;;;;5116048;28;20039;-66
2021/01/26 04:10:38;;;;;;;6.68;4.43;;;6.40;77.30;;;;;;5102875;28;20074;-66
2021/01/26 04:13:09;;;;;;;5.03;3.38;;;6.50;77.20;;;;;;5115180;28;20547;-67
2021/01/26 04:15:47;;;;;;;10.15;4.65;;;6.40;77.00;;;;;;5115591;28;20470;-66
2021/01/26 04:18:16;;;;;;;7.95;4.15;;;6.40;77.00;;;;;;5115034;28;20031;-66
2021/01/26 04:20:42;;;;;;;7.53;4.20;;;6.40;77.00;;;;;;5115725;28;20027;-66
2021/01/26 04:23:08;;;;;;;5.75;3.67;;;6.50;77.00;;;;;;5115349;28;20193;-66
2021/01/26 04:25:46;;;;;;;5.20;3.38;;;6.50;77.00;;;;;;5115207;28;20024;-66
2021/01/26 04:28:35;;;;;;;7.25;4.25;;;6.50;76.90;;;;;;5115413;28;20043;-66
2021/01/26 04:31:01;;;;;;;6.20;4.00;;;6.50;76.80;;;;;;5102915;28;20055;-66
2021/01/26 04:33:27;;;;;;;5.85;4.20;;;6.50;76.80;;;;;;5114915;28;20106;-66
2021/01/26 04:35:52;;;;;;;10.48;4.47;;;6.50;76.80;;;;;;5115413;28;20531;-66
2021/01/26 04:38:18;;;;;;;7.28;4.63;;;6.50;76.80;;;;;;5115205;28;20508;-66
2021/01/26 04:40:44;;;;;;;8.52;4.22;;;6.50;76.80;;;;;;5114711;28;20470;-66
2021/01/26 04:43:20;;;;;;;8.07;4.65;;;6.60;76.80;;;;;;5115299;28;20038;-66
2021/01/26 04:46:03;;;;;;;6.47;4.55;;;6.60;76.80;;;;;;5114874;28;20027;-66
2021/01/26 04:48:32;;;;;;;7.88;4.88;;;6.60;76.70;;;;;;5094838;28;20173;-66
2021/01/26 04:51:17;;;;;;;7.13;4.43;;;6.60;76.60;;;;;;5108521;28;20512;-66
2021/01/26 04:54:07;;;;;;;8.63;4.15;;;6.60;76.60;;;;;;5103249;28;20023;-66
2021/01/26 04:57:16;;;;;;;7.47;4.38;;;6.60;76.60;;;;;;5114682;28;20031;-66
2021/01/26 05:00:20;;;;;;;7.20;4.25;;;6.60;76.60;;;;;;5114567;28;20031;-66
2021/01/26 05:03:01;;;;;;;6.72;4.43;;;6.60;76.50;;;;;;5043297;28;20515;-66
2021/01/26 05:05:34;;;;;;;10.45;4.15;;;6.70;76.40;;;;;;5102015;28;20107;-67
2021/01/26 05:08:05;;;;;;;8.23;4.50;;;6.60;76.40;;;;;;5114000;28;20093;-66
2021/01/26 05:10:36;;;;;;;8.95;4.30;;;6.70;76.40;;;;;;5114806;28;20035;-67
2021/01/26 05:13:10;;;;;;;7.68;4.15;;;6.70;76.50;;;;;;5114462;28;20077;-66
2021/01/26 05:15:40;;;;;;;8.70;4.97;;;6.70;76.50;;;;;;5101111;28;20077;-66
2021/01/26 05:18:11;;;;;;;5.35;3.70;;;6.70;76.40;;;;;;5114599;28;20027;-67
2021/01/26 05:20:44;;;;;;;9.25;4.47;;;6.70;76.50;;;;;;5114322;28;20080;-66
2021/01/26 05:23:18;;;;;;;7.07;4.45;;;6.70;76.50;;;;;;5113884;28;20035;-66
2021/01/26 05:25:44;;;;;;;5.53;3.60;;;6.70;76.50;;;;;;5100323;28;20374;-66
2021/01/26 05:28:11;;;;;;;10.70;4.32;;;6.70;76.40;;;;;;5113737;28;20036;-66
2021/01/26 05:30:38;;;;;;;7.15;4.50;;;6.70;76.40;;;;;;5114271;28;20428;-66
2021/01/26 05:33:12;;;;;;;5.35;3.42;;;6.80;76.40;;;;;;5114153;28;20032;-67
2021/01/26 05:35:44;;;;;;;9.20;3.90;;;6.80;76.30;;;;;;5095427;28;20028;-67
2021/01/26 05:38:10;;;;;;;8.50;3.70;;;6.70;76.20;;;;;;5113967;28;20385;-67
2021/01/26 05:40:41;;;;;;;7.25;3.72;;;6.70;76.20;;;;;;5113895;28;20050;-66
2021/01/26 05:43:12;;;;;;;5.43;3.15;;;6.70;76.20;;;;;;5113643;28;20027;-67
2021/01/26 05:45:50;;;;;;;6.60;3.97;;;6.60;76.20;;;;;;5114010;28;20027;-67
2021/01/26 05:48:18;;;;;;;7.15;4.03;;;6.60;76.20;;;;;;5107672;28;20394;-67
2021/01/26 05:50:46;;;;;;;7.40;4.05;;;6.50;76.20;;;;;;5093035;28;20417;-67
2021/01/26 05:53:22;;;;;;;5.57;3.55;;;6.50;76.20;;;;;;5112192;28;20478;-66
2021/01/26 05:56:08;;;;;;;6.43;4.20;;;6.50;76.10;;;;;;5113696;28;20390;-66
2021/01/26 05:58:34;;;;;;;5.45;3.80;;;6.50;76.00;;;;;;5113208;28;20024;-67
2021/01/26 06:01:03;;;;;;;8.13;4.05;;;6.40;76.00;;;;;;5102786;28;20120;-66
2021/01/26 06:03:29;;;;;;;6.18;3.85;;;6.40;76.00;;;;;;5092823;28;20031;-66
2021/01/26 06:06:02;;;;;;;6.47;3.85;;;6.40;76.00;;;;;;5093235;28;20364;-66
2021/01/26 06:08:28;;;;;;;5.70;3.60;;;6.40;75.80;;;;;;5092708;28;20156;-66
2021/01/26 06:10:54;;;;;;;9.73;3.97;;;6.40;75.70;;;;;;5092903;28;20085;-69
2021/01/26 06:13:25;;;;;;;6.80;3.45;;;6.40;75.70;;;;;;5098839;28;20027;-67
2021/01/26 06:16:13;;;;;;;7.10;4.13;;;6.30;75.70;;;;;;5111640;28;20032;-65
2021/01/26 06:18:54;;;;;;;8.20;4.00;;;6.40;75.90;;;;;;5092280;28;20036;-68
2021/01/26 06:21:19;;;;;;;9.30;4.68;;;6.30;75.90;;;;;;5092960;28;20032;-69
2021/01/26 06:23:45;;;;;;;6.88;4.00;;;6.30;75.90;;;;;;5092678;28;20070;-66
2021/01/26 06:26:12;;;;;;;6.72;4.30;;;6.30;76.00;;;;;;5092157;28;20478;-65
2021/01/26 06:28:48;;;;;;;6.97;4.60;;;6.30;76.00;;;;;;5094503;28;20047;-67
2021/01/26 06:31:14;;;;;;;7.65;4.43;;;6.20;76.10;;;;;;5098777;28;20084;-66
2021/01/26 06:34:03;;;;;;;10.20;4.53;;;6.30;76.20;;;;;;5101925;28;20441;-66
2021/01/26 06:36:34;;;;;;;10.50;4.63;;;6.30;76.30;;;;;;5068486;28;20031;-67
2021/01/26 06:39:03;;;;;;;6.68;4.53;;;6.30;76.20;;;;;;5104879;28;20742;-65
2021/01/26 06:41:47;;;;;;;6.22;3.95;;;6.30;76.20;;;;;;5106514;28;20111;-66
2021/01/26 06:44:31;;;;;;;7.85;4.32;;;6.30;76.20;;;;;;5098827;28;20106;-67
2021/01/26 06:47:21;;;;;;;5.72;3.50;;;6.30;76.10;;;;;;5106797;28;20043;-66
2021/01/26 06:50:04;;;;;;;5.32;3.35;;;6.30;76.10;;;;;;5091851;28;20035;-66
2021/01/26 06:52:48;;;;;;;11.10;4.13;;;6.30;76.00;;;;;;5094189;28;20028;-67
2021/01/26 06:55:30;;;;;;;8.60;3.75;;;6.30;76.10;;;;;;5090689;28;20028;-66
2021/01/26 06:58:14;;;;;;;7.18;3.92;;;6.20;76.00;;;;;;5089849;28;20034;-65
2021/01/26 07:01:07;;;;;;;5.82;3.72;;;6.10;76.10;;;;;;5089915;28;20034;-67
2021/01/26 07:04:06;;;;;;;6.43;2.67;;;6.10;76.20;;;;;;5090539;28;20514;-69
2021/01/26 07:06:53;;;;;;;7.18;3.30;;;6.00;76.40;;;;;;5093251;28;20032;-67
2021/01/26 07:09:21;;;;;;;4.72;2.80;;;6.00;76.50;;;;;;5090525;28;20054;-67
2021/01/26 07:12:12;;;;;;;4.65;2.80;;;5.90;76.70;;;;;;5089422;28;20491;-65
2021/01/26 07:14:52;;;;;;;5.72;2.55;;;5.80;76.90;;;;;;5090164;28;20500;-66
2021/01/26 07:17:40;;;;;;;4.22;2.63;;;5.80;77.10;;;;;;5090576;28;20038;-68
2021/01/26 07:20:13;;;;;;;4.32;2.10;;;5.70;77.30;;;;;;5089250;28;20032;-66
2021/01/26 07:23:00;;;;;;;3.60;2.38;;;5.70;77.40;;;;;;5070346;28;20032;-66
2021/01/26 07:25:46;;;;;;;2.25;1.50;;;5.70;77.60;;;;;;5093059;28;20459;-66
2021/01/26 07:28:37;;;;;;;1.20;1.08;;;5.60;77.80;;;;;;5096753;28;20067;-66
2021/01/26 07:31:18;;;;;;;2.28;1.33;;;5.60;78.00;;;;;;5094394;28;20094;-66
2021/01/26 07:34:07;;;;;;;3.20;2.10;;;5.50;78.20;;;;;;5095894;28;20438;-66
2021/01/26 07:36:42;;;;;;;6.15;2.55;;;5.40;78.30;;;;;;5093706;28;20076;-66
2021/01/26 07:39:32;;;;;;;2.47;1.60;;;5.40;78.40;;;;;;5093754;28;20031;-67
2021/01/26 07:42:16;;;;;;;2.70;1.30;;;5.40;78.60;;;;;;5092924;28;20039;-66
2021/01/26 07:45:13;;;;;;;3.92;2.58;;;5.30;78.70;;;;;;5093724;28;20027;-67
2021/01/26 07:47:49;;;;;;;7.65;2.17;;;5.30;78.90;;;;;;5081166;28;20043;-66
2021/01/26 07:50:39;;;;;;;3.58;1.83;;;5.20;78.90;;;;;;5093239;28;20061;-66
2021/01/26 07:53:39;;;;;;;3.15;2.08;;;5.20;79.10;;;;;;5096293;28;20040;-67
2021/01/26 07:56:32;;;;;;;3.83;2.00;;;5.20;79.20;;;;;;5112587;28;20291;-68
2021/01/26 07:59:03;;;;;;;2.10;1.52;;;5.20;79.20;;;;;;5097082;28;20056;-67
2021/01/26 08:01:41;;;;;;;5.13;2.55;;;5.10;79.30;;;;;;5095067;28;20028;-67
2021/01/26 08:04:07;;;;;;;4.30;2.55;;;5.10;79.40;;;;;;5101145;28;20934;-67
2021/01/26 08:06:35;;;;;;;9.05;2.50;;;5.10;79.40;;;;;;5108730;28;20114;-66
2021/01/26 08:09:04;;;;;;;3.60;1.80;;;5.10;79.50;;;;;;5101199;28;20387;-67
2021/01/26 08:11:30;;;;;;;2.65;1.83;;;5.10;79.50;;;;;;5113123;28;20096;-67
2021/01/26 08:13:59;;;;;;;3.03;1.92;;;5.10;79.60;;;;;;5100939;28;20498;-67
2021/01/26 08:16:51;;;;;;;5.22;2.67;;;5.10;79.60;;;;;;5104034;28;20141;-67
2021/01/26 08:19:24;;;;;;;3.30;2.22;;;5.10;79.60;;;;;;5109109;28;20020;-66
2021/01/26 08:21:51;;;;;;;3.70;2.40;;;5.00;79.50;;;;;;5108481;28;20390;-70
2021/01/26 08:24:22;;;;;;;2.88;1.98;;;5.00;79.60;;;;;;5108766;28;20024;-66
2021/01/26 08:26:50;;;;;;;3.65;2.58;;;5.00;79.70;;;;;;5093717;28;20077;-66
2021/01/26 08:29:37;;;;;;;5.97;2.92;;;5.00;79.70;;;;;;5093359;28;20448;-67
2021/01/26 08:32:22;;;;;;;6.90;2.95;;;5.00;79.70;;;;;;5093849;28;20032;-67
2021/01/26 08:35:07;;;;;;;5.65;3.35;;;5.00;79.70;;;;;;5096307;28;20493;-67
2021/01/26 08:37:44;;;;;;;5.78;2.78;;;5.00;79.60;;;;;;5088931;28;20038;-67
2021/01/26 08:40:14;;;;;;;7.13;3.92;;;5.00;79.60;;;;;;5091256;28;20024;-67
2021/01/26 08:42:43;;;;;;;8.00;3.92;;;5.00;79.70;;;;;;5093126;28;20058;-66
2021/01/26 08:45:28;;;;;;;9.02;3.97;;;5.00;79.70;;;;;;5099675;28;20906;-65
2021/01/26 08:48:06;;;;;;;6.40;3.33;;;5.00;79.70;;;;;;5094135;28;20088;-65
2021/01/26 08:50:40;;;;;;;8.10;4.13;;;5.10;79.80;;;;;;5102571;28;20035;-65
2021/01/26 08:53:24;;;;;;;;;;;5.10;80.00;;;;;;5103343;28;20027;-65
2021/01/26 08:55:58;;;;;;;6.47;3.15;;;5.10;79.80;;;;;;5105881;28;19908;-65
2021/01/26 08:58:39;;;;;;;9.25;3.20;;;5.10;79.50;;;;;;5106771;28;20128;-65
2021/01/26 09:01:09;;;;;;;3.90;2.13;;;5.10;79.60;;;;;;5098795;28;20564;-65
2021/01/26 09:03:38;;;;;;;3.80;3.00;;;5.10;79.50;;;;;;5095256;28;20487;-65
2021/01/26 09:06:09;;;;;;;5.20;1.70;;;5.10;79.50;;;;;;5108714;28;20038;-65
2021/01/26 09:08:41;;;;;;;10.10;3.20;;;5.10;79.60;;;;;;5103789;28;20040;-66
2021/01/26 09:11:17;;;;;;;4.75;2.58;;;5.20;79.60;;;;;;5101878;28;20500;-67
2021/01/26 09:13:45;;;;;;;2.85;1.17;;;5.20;79.60;;;;;;5097976;28;20031;-67
2021/01/26 09:16:25;;;;;;;2.30;1.33;;;5.20;79.50;;;;;;5100861;28;20032;-67
2021/01/26 09:19:02;;;;;;;5.10;2.63;;;5.20;79.40;;;;;;5096593;28;20112;-66
2021/01/26 09:21:31;;;;;;;5.05;2.70;;;5.20;79.50;;;;;;5098895;28;20425;-66
2021/01/26 09:23:57;;;;;;;6.68;2.72;;;5.20;79.60;;;;;;5092624;28;20543;-66
2021/01/26 09:26:26;;;;;;;6.05;3.20;;;5.20;79.60;;;;;;5092908;28;20471;-68
2021/01/26 09:28:52;;;;;;;7.70;2.75;;;5.20;79.70;;;;;;5091605;28;20044;-68
2021/01/26 09:31:22;;;;;;;4.22;2.05;;;5.20;79.70;;;;;;5092817;28;20360;-69
2021/01/26 09:33:47;;;;;;;3.30;1.92;;;5.20;79.70;;;;;;5092990;28;20036;-64
2021/01/26 09:36:20;;;;;;;3.85;2.00;;;5.30;79.60;;;;;;5099714;28;20038;-66
2021/01/26 09:38:49;;;;;;;3.47;1.42;;;5.30;80.30;;;;;;5099121;28;20544;-66
2021/01/26 09:41:24;;;;;;;5.28;2.60;;;5.30;79.70;;;;;;5099593;28;20050;-66
2021/01/26 09:43:55;;;;;;;7.57;3.05;;;5.30;79.80;;;;;;5097661;28;20124;-66
2021/01/26 09:46:26;;;;;;;3.58;2.03;;;5.40;79.80;;;;;;5102339;28;20027;-66
2021/01/26 09:49:12;;;;;;;0.68;0.68;;;5.40;79.70;;;;;;5091209;28;20051;-66
2021/01/26 09:51:42;;;;;;;2.75;1.80;;;5.40;79.60;;;;;;5092667;28;20028;-66
2021/01/26 09:54:18;;;;;;;1.02;1.00;;;5.40;79.70;;;;;;5104905;28;20043;-67
2021/01/26 09:56:45;;;;;;;1.63;1.13;;;5.30;79.90;;;;;;5111480;28;20046;-66
2021/01/26 09:59:13;;;;;;;1.00;1.00;;;5.30;80.10;;;;;;5100901;28;20028;-66
2021/01/26 10:01:41;;;;;;;0.77;0.77;;;5.30;80.30;;;;;;5101986;28;20032;-66
2021/01/26 10:04:07;;;;;;;2.20;1.80;;;5.20;80.40;;;;;;5096872;28;20078;-67
2021/01/26 10:06:34;;;;;;;1.40;0.95;;;5.30;80.60;;;;;;5092228;28;20360;-66
2021/01/26 10:09:21;;;;;;;8.20;2.45;;;5.30;80.70;;;;;;5095973;28;20237;-66
2021/01/26 10:11:48;;;;;;;0.55;0.55;;;5.30;80.90;;;;;;5092069;28;20019;-66
2021/01/26 10:14:20;;;;;;;3.20;0.95;;;5.30;80.90;;;;;;5091691;28;20032;-66
2021/01/26 10:16:51;;;;;;;1.35;0.95;;;5.30;81.00;;;;;;5091530;28;20032;-66
2021/01/26 10:19:20;;;;;;;0.90;0.90;;;5.30;81.10;;;;;;5093469;28;20565;-66
2021/01/26 10:21:46;;;;;;;1.20;0.50;;;5.30;81.20;;;;;;5100340;28;20076;-67
2021/01/26 10:24:22;;;;;;;2.25;1.73;;;5.30;81.30;;;;;;5094777;28;20028;-67
2021/01/26 10:26:48;;;;;;;0.55;0.55;;;5.30;81.50;;;;;;5091457;28;20632;-67
2021/01/26 10:29:22;;;;;;;0.57;0.52;;;5.30;81.70;;;;;;5103332;28;20063;-67
2021/01/26 10:31:50;;;;;;;;;;;5.30;81.90;;;;;;5091781;28;20102;-67
2021/01/26 10:34:23;;;;;;;0.55;0.55;;;5.40;82.10;;;;;;5091941;28;19920;-67
2021/01/26 10:36:50;;;;;;;1.17;0.82;;;5.30;82.20;;;;;;5093920;28;20071;-66
2021/01/26 10:39:21;;;;;;;0.70;0.70;;;5.30;82.50;;;;;;5091277;28;20403;-67
2021/01/26 10:41:55;;;;;;;0.60;0.60;;;5.30;82.90;;;;;;5091120;28;20039;-66
2021/01/26 10:44:21;;;;;;;2.42;1.02;;;5.30;83.20;;;;;;5091520;28;20020;-67
2021/01/26 10:46:49;;;;;;;0.85;0.63;;;5.30;83.50;;;;;;5091135;28;20024;-76
2021/01/26 10:49:15;;;;;;;0.50;0.50;;;5.40;83.70;;;;;;5091473;28;20040;-66
2021/01/26 10:51:42;;;;;;;0.65;0.65;;;5.30;83.80;;;;;;5111480;28;20068;-66
2021/01/26 10:54:09;;;;;;;0.80;0.70;;;5.40;84.00;;;;;;5104288;28;20038;-66
2021/01/26 10:56:35;;;;;;;1.77;0.82;;;5.40;84.10;;;;;;5112027;28;20020;-71
2021/01/26 10:59:01;;;;;;;2.22;1.50;;;5.50;84.30;;;;;;5100346;28;20038;-67
2021/01/26 11:01:28;;;;;;;1.25;0.93;;;5.50;84.50;;;;;;5111595;28;20030;-66
2021/01/26 11:03:54;;;;;;;0.40;0.40;;;5.50;84.50;;;;;;5097241;28;20429;-66
2021/01/26 11:06:22;;;;;;;0.43;0.43;;;5.50;84.60;;;;;;5115756;28;20043;-64
2021/01/26 11:08:48;;;;;;;2.13;0.80;;;5.60;84.70;;;;;;5115887;28;20433;-65
2021/01/26 11:11:17;;;;;;;0.50;0.50;;;5.60;84.80;;;;;;5115972;28;20107;-66
2021/01/26 11:13:44;;;;;;;1.15;1.02;;;5.70;84.80;;;;;;5115450;28;20106;-67
2021/01/26 11:16:09;;;;;;;3.92;1.20;;;5.70;84.80;;;;;;5115184;28;20085;-66
2021/01/26 11:18:35;;;;;;;0.80;0.80;;;5.80;84.90;;;;;;5107163;28;20454;-65
2021/01/26 11:21:02;;;;;;;0.90;0.90;;;5.80;85.00;;;;;;5094519;28;20463;-66
2021/01/26 11:23:28;;;;;;;0.50;0.50;;;5.80;85.10;;;;;;5095066;28;20032;-69
2021/01/26 11:25:54;;;;;;;2.47;1.25;;;5.90;85.30;;;;;;5094916;28;20069;-68
2021/01/26 11:28:20;;;;;;;0.50;0.50;;;5.90;85.40;;;;;;5094922;28;20052;-67
2021/01/26 11:30:46;;;;;;;0.60;0.60;;;5.90;85.50;;;;;;5096904;28;20081;-66
2021/01/26 11:33:12;;;;;;;0.60;0.60;;;5.90;85.60;;;;;;5108918;28;20069;-67
2021/01/26 11:35:38;;;;;;;6.03;1.33;;;6.00;85.90;;;;;;5105857;28;20024;-66
2021/01/26 11:38:04;;;;;;;0.60;0.60;;;6.00;86.00;;;;;;5104145;28;20024;-67
2021/01/26 11:40:30;;;;;;;1.00;0.93;;;6.00;86.10;;;;;;5102434;28;20439;-67
2021/01/26 11:42:56;;;;;;;0.45;0.45;;;6.10;86.20;;;;;;5113058;28;20088;-67
2021/01/26 11:45:28;;;;;;;1.38;0.90;;;6.10;86.40;;;;;;5100751;28;20104;-67
2021/01/26 11:47:54;;;;;;;2.15;0.98;;;6.20;86.50;;;;;;5101590;28;20040;-67
2021/01/26 11:50:21;;;;;;;5.05;1.25;;;6.20;86.60;;;;;;5094473;28;20036;-66
2021/01/26 11:52:48;;;;;;;0.88;0.88;;;6.20;86.80;;;;;;5101418;28;20024;-65
2021/01/26 11:55:18;;;;;;;2.08;0.93;;;6.30;86.90;;;;;;5102455;28;20196;-67
2021/01/26 11:57:46;;;;;;;2.65;1.27;;;6.30;87.10;;;;;;5105916;28;20028;-67
2021/01/26 12:00:15;;;;;;;1.15;1.00;;;6.40;87.10;;;;;;5109535;28;20424;-66
2021/01/26 12:02:40;;;;;;;0.55;0.55;;;6.40;87.10;;;;;;5101658;28;20032;-68
2021/01/26 12:05:07;;;;;;;7.80;1.45;;;6.40;87.10;;;;;;5097167;28;20106;-67
2021/01/26 12:07:33;;;;;;;0.70;0.70;;;6.50;87.30;;;;;;5105292;28;20044;-68
2021/01/26 12:09:59;;;;;;;8.02;1.67;;;6.50;87.40;;;;;;5096728;28;20139;-68
2021/01/26 12:12:25;;;;;;;2.35;1.27;;;6.60;87.50;;;;;;5111948;28;20028;-67
2021/01/26 12:14:50;;;;;;;1.27;0.85;;;6.60;87.50;;;;;;5112094;28;20114;-69
2021/01/26 12:17:16;;;;;;;0.60;0.60;;;6.70;87.60;;;;;;5100873;28;20031;-69
2021/01/26 12:19:42;;;;;;;0.75;0.75;;;6.70;87.60;;;;;;5094863;28;20088;-68
2021/01/26 12:22:07;;;;;;;3.42;1.13;;;6.80;87.70;;;;;;5096898;28;20032;-79
2021/01/26 12:24:33;;;;;;;4.63;1.27;;;6.80;87.80;;;;;;5097903;28;20028;-69
2021/01/26 12:26:59;;;;;;;4.85;1.52;;;6.80;87.80;;;;;;5093735;28;20784;-69
2021/01/26 12:29:24;;;;;;;1.33;0.88;;;6.90;87.90;;;;;;5094007;28;20105;-69
2021/01/26 12:31:50;;;;;;;0.90;0.90;;;6.90;87.90;;;;;;5093429;28;20406;-70
2021/01/26 12:34:16;;;;;;;0.70;0.65;;;7.00;87.90;;;;;;5105088;28;20028;-64
2021/01/26 12:36:41;;;;;;;1.42;0.90;;;7.00;88.60;;;;;;5093855;28;20081;-67
2021/01/26 12:39:08;;;;;;;1.65;1.02;;;7.00;87.90;;;;;;5110328;28;20465;-67
2021/01/26 12:41:33;;;;;;;0.45;0.45;;;7.10;88.00;;;;;;5103067;28;20099;-66
2021/01/26 12:44:01;;;;;;;1.75;1.30;;;7.10;88.00;;;;;;5109167;28;20138;-67
2021/01/26 12:46:27;;;;;;;0.75;0.75;;;7.20;88.10;;;;;;5109089;28;20016;-67
2021/01/26 12:48:52;;;;;;;3.85;1.15;;;7.20;88.10;;;;;;5107555;28;20028;-66
2021/01/26 12:51:19;;;;;;;2.08;1.00;;;7.30;88.10;;;;;;5102225;28;20020;-67
2021/01/26 12:53:45;;;;;;;1.80;1.15;;;7.30;88.10;;;;;;5110550;27;20028;-67
2021/01/26 12:56:11;;;;;;;3.92;1.27;;;7.30;88.10;;;;;;5091696;28;20108;-67
2021/01/26 12:58:36;;;;;;;4.35;1.25;;;7.40;88.30;;;;;;5092689;28;20028;-67
2021/01/26 13:01:03;;;;;;;1.95;1.20;;;7.40;88.30;;;;;;5096763;28;20040;-68
2021/01/26 13:03:28;;;;;;;2.38;1.17;;;7.40;88.40;;;;;;5091473;28;20523;-68
2021/01/26 13:05:54;;;;;;;1.60;1.13;;;7.50;88.30;;;;;;5091110;28;20024;-69
2021/01/26 13:08:20;;;;;;;0.63;0.63;;;7.50;88.30;;;;;;5092175;28;20040;-67
2021/01/26 13:10:45;;;;;;;3.90;1.27;;;7.50;88.30;;;;;;5091645;28;20034;-67
2021/01/26 13:13:11;;;;;;;3.67;1.45;;;7.60;88.30;;;;;;5094066;28;20510;-70
2021/01/26 13:15:37;;;;;;;0.70;0.47;;;7.60;88.30;;;;;;5092298;28;20047;-70
2021/01/26 13:18:03;;;;;;;1.98;1.45;;;7.70;88.20;;;;;;5099155;28;20355;-69
2021/01/26 13:20:28;;;;;;;2.35;1.20;;;7.70;88.20;;;;;;5092498;28;20058;-69
2021/01/26 13:22:54;;;;;;;0.63;0.63;;;7.70;88.20;;;;;;5090660;28;20051;-67
2021/01/26 13:25:24;;;;;;;2.53;1.02;;;7.70;88.10;;;;;;5094321;28;20027;-66